createdAt,value
2017-11-25T00:01:17.089Z,99.90
2017-11-25T00:03:45.926Z,99.90
2017-11-25T00:06:15.479Z,99.90
2017-11-25T00:08:45.094Z,99.90
2017-11-25T00:11:14.642Z,99.90
2017-11-25T00:13:43.490Z,99.90
2017-11-25T00:16:13.039Z,99.90
2017-11-25T00:18:41.830Z,99.90
2017-11-25T00:21:10.695Z,99.90
2017-11-25T00:23:39.485Z,99.90
2017-11-25T00:26:08.318Z,99.90
2017-11-25T00:28:37.098Z,99.90
2017-11-25T00:31:05.888Z,99.90
2017-11-25T00:33:34.687Z,99.90
2017-11-25T00:36:03.775Z,99.90
2017-11-25T00:38:32.602Z,99.90
2017-11-25T00:41:02.161Z,99.90
2017-11-25T00:43:31.002Z,99.90
2017-11-25T00:46:00.571Z,99.90
2017-11-25T00:48:29.407Z,99.90
2017-11-25T00:50:59.671Z,99.90
2017-11-25T00:53:28.476Z,99.90
2017-11-25T00:55:57.313Z,99.90
2017-11-25T00:58:26.163Z,99.90
2017-11-25T01:00:54.862Z,99.90
2017-11-25T01:03:23.663Z,99.90
2017-11-25T01:05:53.227Z,99.90
2017-11-25T01:08:22.076Z,99.90
2017-11-25T01:10:51.638Z,99.90
2017-11-25T01:13:21.225Z,99.90
2017-11-25T01:15:50.035Z,99.90
2017-11-25T01:18:18.839Z,99.90
2017-11-25T01:20:47.684Z,99.90
2017-11-25T01:23:16.483Z,99.90
2017-11-25T01:25:45.326Z,99.90
2017-11-25T01:28:14.889Z,99.90
2017-11-25T01:30:43.690Z,99.90
2017-11-25T01:33:12.546Z,99.90
2017-11-25T01:35:41.341Z,99.90
2017-11-25T01:38:10.209Z,99.90
2017-11-25T01:40:38.727Z,99.90
2017-11-25T01:43:07.573Z,99.90
2017-11-25T01:45:37.147Z,99.90
2017-11-25T01:48:05.971Z,99.90
2017-11-25T01:50:35.444Z,99.90
2017-11-25T01:53:04.266Z,99.90
2017-11-25T01:55:36.685Z,99.90
2017-11-25T01:58:05.205Z,99.90
2017-11-25T02:00:33.997Z,99.90
2017-11-25T02:03:02.865Z,99.90
2017-11-25T02:05:31.513Z,99.90
2017-11-25T02:08:00.354Z,99.90
2017-11-25T02:10:28.989Z,99.90
2017-11-25T02:12:57.631Z,99.90
2017-11-25T02:15:26.533Z,99.90
2017-11-25T02:17:55.334Z,99.90
2017-11-25T02:20:24.945Z,99.90
2017-11-25T02:22:53.906Z,99.90
2017-11-25T02:25:22.428Z,99.90
2017-11-25T02:27:51.306Z,99.90
2017-11-25T02:30:20.622Z,99.90
2017-11-25T02:32:49.949Z,99.90
2017-11-25T02:35:19.549Z,99.90
2017-11-25T02:37:48.047Z,99.90
2017-11-25T02:40:16.274Z,99.90
2017-11-25T02:42:45.125Z,99.90
2017-11-25T02:45:13.349Z,99.90
2017-11-25T02:47:42.292Z,99.90
2017-11-25T02:50:10.784Z,99.90
2017-11-25T02:52:39.010Z,99.90
2017-11-25T02:55:07.506Z,99.90
2017-11-25T02:57:36.379Z,99.90
2017-11-25T03:00:05.956Z,99.90
2017-11-25T03:02:34.807Z,99.90
2017-11-25T03:05:03.311Z,99.90
2017-11-25T03:07:31.864Z,99.90
2017-11-25T03:10:00.747Z,99.90
2017-11-25T03:12:30.352Z,99.90
2017-11-25T03:14:59.941Z,99.90
2017-11-25T03:17:28.747Z,99.90
2017-11-25T03:19:58.370Z,99.90
2017-11-25T03:22:27.181Z,99.90
2017-11-25T03:24:55.862Z,99.90
2017-11-25T03:27:24.491Z,99.90
2017-11-25T03:29:53.144Z,99.90
2017-11-25T03:32:21.969Z,99.90
2017-11-25T03:34:50.768Z,99.90
2017-11-25T03:37:19.613Z,99.90
2017-11-25T03:39:48.406Z,99.90
2017-11-25T03:42:17.201Z,99.90
2017-11-25T03:44:46.043Z,99.90
2017-11-25T03:47:15.619Z,99.90
2017-11-25T03:49:44.466Z,99.90
2017-11-25T03:52:13.254Z,99.90
2017-11-25T03:54:41.479Z,99.90
2017-11-25T03:57:10.299Z,99.90
2017-11-25T03:59:39.098Z,99.90
2017-11-25T04:02:07.925Z,99.90
2017-11-25T04:04:36.739Z,99.90
2017-11-25T04:07:05.571Z,99.90
2017-11-25T04:09:34.407Z,99.90
2017-11-25T04:12:03.279Z,99.90
2017-11-25T04:14:32.134Z,99.90
2017-11-25T04:17:01.689Z,99.90
2017-11-25T04:19:30.531Z,99.90
2017-11-25T04:22:00.086Z,99.90
2017-11-25T04:24:28.942Z,99.90
2017-11-25T04:26:57.748Z,99.90
2017-11-25T04:29:26.582Z,99.90
2017-11-25T04:31:55.375Z,99.90
2017-11-25T04:34:24.158Z,99.90
2017-11-25T04:36:52.998Z,99.90
2017-11-25T04:39:21.845Z,99.90
2017-11-25T04:41:50.634Z,99.90
2017-11-25T04:44:19.486Z,99.90
2017-11-25T04:46:48.285Z,99.90
2017-11-25T04:49:17.078Z,99.90
2017-11-25T04:51:45.916Z,99.90
2017-11-25T04:54:15.520Z,99.90
2017-11-25T04:56:45.128Z,99.90
2017-11-25T04:59:14.742Z,99.90
2017-11-25T05:01:44.098Z,99.90
2017-11-25T05:04:12.945Z,99.90
2017-11-25T05:06:41.798Z,99.90
2017-11-25T05:09:10.678Z,99.90
2017-11-25T05:11:39.525Z,99.90
2017-11-25T05:14:08.363Z,99.90
2017-11-25T05:16:37.207Z,99.90
2017-11-25T05:19:06.094Z,99.90
2017-11-25T05:21:34.641Z,99.90
2017-11-25T05:24:03.498Z,99.90
2017-11-25T05:26:32.202Z,99.90
2017-11-25T05:29:00.897Z,99.90
2017-11-25T05:31:29.751Z,99.90
2017-11-25T05:33:58.594Z,99.90
2017-11-25T05:36:28.215Z,99.90
2017-11-25T05:38:57.671Z,99.90
2017-11-25T05:41:26.387Z,99.90
2017-11-25T05:43:55.068Z,99.90
2017-11-25T05:46:23.902Z,99.90
2017-11-25T05:48:52.571Z,99.90
2017-11-25T05:51:22.022Z,99.90
2017-11-25T05:53:50.862Z,99.90
2017-11-25T05:56:20.466Z,99.90
2017-11-25T05:58:49.303Z,99.90
2017-11-25T06:01:18.135Z,99.90
2017-11-25T06:03:46.981Z,99.90
2017-11-25T06:06:16.586Z,99.90
2017-11-25T06:08:45.420Z,99.90
2017-11-25T06:11:14.270Z,99.90
2017-11-25T06:13:43.114Z,99.90
2017-11-25T06:16:11.975Z,99.90
2017-11-25T06:18:42.783Z,99.90
2017-11-25T06:21:11.635Z,99.90
2017-11-25T06:23:40.474Z,99.90
2017-11-25T06:26:09.143Z,99.90
2017-11-25T06:28:37.832Z,99.90
2017-11-25T06:31:06.668Z,99.90
2017-11-25T06:33:35.511Z,99.90
2017-11-25T06:36:04.358Z,99.90
2017-11-25T06:38:32.948Z,99.90
2017-11-25T06:41:01.794Z,99.90
2017-11-25T06:43:30.630Z,99.90
2017-11-25T06:45:59.765Z,99.90
2017-11-25T06:48:28.605Z,99.90
2017-11-25T06:50:57.292Z,99.90
2017-11-25T06:53:26.151Z,99.90
2017-11-25T06:55:55.002Z,99.90
2017-11-25T06:58:24.603Z,99.90
2017-11-25T07:00:54.215Z,99.90
2017-11-25T07:03:23.835Z,99.90
2017-11-25T07:05:53.437Z,99.90
2017-11-25T07:08:23.034Z,99.90
2017-11-25T07:10:52.500Z,99.90
2017-11-25T07:13:21.229Z,99.90
2017-11-25T07:15:50.859Z,99.90
2017-11-25T07:18:20.098Z,99.90
2017-11-25T07:20:48.648Z,99.90
2017-11-25T07:23:17.531Z,99.90
2017-11-25T07:25:46.455Z,99.90
2017-11-25T07:28:15.306Z,99.90
2017-11-25T07:30:45.172Z,99.90
2017-11-25T07:33:14.047Z,99.90
2017-11-25T07:35:42.895Z,99.90
2017-11-25T07:38:12.494Z,99.90
2017-11-25T07:40:41.357Z,99.90
2017-11-25T07:43:10.512Z,99.90
2017-11-25T07:45:39.070Z,99.90
2017-11-25T07:48:11.332Z,99.90
2017-11-25T07:50:40.219Z,99.90
2017-11-25T07:53:09.083Z,99.90
2017-11-25T07:55:37.959Z,99.90
2017-11-25T07:58:07.437Z,99.90
2017-11-25T08:00:37.102Z,99.90
2017-11-25T08:03:05.946Z,99.90
2017-11-25T08:05:35.521Z,99.90
2017-11-25T08:08:04.921Z,99.90
2017-11-25T08:10:33.755Z,99.90
2017-11-25T08:13:02.590Z,99.90
2017-11-25T08:15:31.485Z,99.90
2017-11-25T08:18:00.361Z,99.90
2017-11-25T08:20:31.789Z,99.90
2017-11-25T08:23:01.308Z,99.90
2017-11-25T08:25:30.007Z,99.90
2017-11-25T08:27:59.481Z,99.90
2017-11-25T08:30:28.334Z,99.90
2017-11-25T08:32:57.003Z,99.90
2017-11-25T08:35:25.866Z,99.90
2017-11-25T08:37:54.739Z,99.90
2017-11-25T08:40:23.591Z,99.90
2017-11-25T08:42:53.096Z,99.90
2017-11-25T08:45:21.970Z,99.90
2017-11-25T08:47:50.887Z,99.90
2017-11-25T08:50:20.495Z,99.90
2017-11-25T08:52:50.098Z,99.90
2017-11-25T08:55:18.942Z,99.90
2017-11-25T08:57:47.785Z,99.90
2017-11-25T09:00:17.388Z,99.90
2017-11-25T09:02:46.228Z,99.90
2017-11-25T09:05:15.071Z,99.90
2017-11-25T09:07:43.905Z,99.90
2017-11-25T09:10:12.790Z,99.90
2017-11-25T09:12:41.622Z,99.90
2017-11-25T09:15:10.480Z,99.90
2017-11-25T09:17:39.328Z,99.90
2017-11-25T09:20:08.970Z,99.90
2017-11-25T09:22:37.827Z,99.90
2017-11-25T09:25:06.676Z,99.90
2017-11-25T09:27:35.606Z,99.90
2017-11-25T09:30:04.157Z,99.90
2017-11-25T09:32:33.121Z,99.90
2017-11-25T09:35:01.981Z,99.90
2017-11-25T09:37:30.825Z,99.90
2017-11-25T09:40:00.482Z,99.90
2017-11-25T09:42:29.954Z,99.90
2017-11-25T09:44:58.631Z,99.90
2017-11-25T09:47:27.026Z,99.90
2017-11-25T09:49:55.715Z,99.90
2017-11-25T09:52:24.595Z,99.90
2017-11-25T09:54:53.370Z,99.90
2017-11-25T09:57:22.063Z,99.90
2017-11-25T09:59:50.923Z,99.90
2017-11-25T10:02:19.768Z,99.90
2017-11-25T10:04:48.625Z,99.90
2017-11-25T10:07:17.480Z,99.90
2017-11-25T10:09:46.951Z,99.90
2017-11-25T10:12:15.798Z,99.90
2017-11-25T10:14:44.638Z,99.90
2017-11-25T10:17:13.479Z,99.90
2017-11-25T10:19:42.368Z,99.90
2017-11-25T10:22:11.213Z,99.90
2017-11-25T10:24:39.795Z,99.90
2017-11-25T10:27:08.648Z,99.90
2017-11-25T10:29:37.493Z,99.90
2017-11-25T10:32:07.104Z,99.90
2017-11-25T10:34:36.749Z,99.90
2017-11-25T10:37:05.448Z,99.90
2017-11-25T10:39:34.551Z,99.90
2017-11-25T10:42:03.411Z,99.90
2017-11-25T10:44:31.885Z,99.90
2017-11-25T10:47:00.851Z,99.90
2017-11-25T10:49:29.953Z,99.90
2017-11-25T10:51:58.834Z,99.90
2017-11-25T10:54:29.707Z,99.90
2017-11-25T10:56:58.554Z,99.90
2017-11-25T10:59:27.405Z,99.90
2017-11-25T11:01:56.263Z,99.90
2017-11-25T11:04:25.879Z,99.90
2017-11-25T11:06:55.500Z,99.90
2017-11-25T11:09:24.344Z,99.90
2017-11-25T11:11:53.205Z,99.90
2017-11-25T11:14:22.075Z,99.90
2017-11-25T11:16:51.793Z,99.90
2017-11-25T11:19:20.656Z,99.90
2017-11-25T11:21:50.258Z,99.90
2017-11-25T11:24:19.866Z,99.90
2017-11-25T11:26:48.711Z,99.90
2017-11-25T11:29:17.564Z,99.90
2017-11-25T11:31:47.166Z,99.90
2017-11-25T11:34:16.797Z,99.90
2017-11-25T11:36:45.639Z,99.90
2017-11-25T11:39:14.476Z,99.90
2017-11-25T11:41:44.906Z,99.90
2017-11-25T11:44:14.183Z,99.90
2017-11-25T11:46:43.795Z,99.90
2017-11-25T11:49:13.435Z,99.90
2017-11-25T11:51:42.271Z,99.90
2017-11-25T11:54:11.711Z,99.90
2017-11-25T11:56:41.319Z,99.90
2017-11-25T11:59:10.930Z,99.90
2017-11-25T12:01:39.632Z,99.90
2017-11-25T12:04:08.478Z,99.90
2017-11-25T12:06:37.154Z,99.90
2017-11-25T12:09:07.516Z,99.90
2017-11-25T12:11:36.212Z,99.90
2017-11-25T12:14:05.095Z,99.90
2017-11-25T12:16:33.999Z,99.90
2017-11-25T12:19:03.419Z,99.90
2017-11-25T12:21:32.251Z,99.90
2017-11-25T12:24:01.087Z,99.90
2017-11-25T12:26:29.923Z,99.90
2017-11-25T12:28:58.763Z,99.90
2017-11-25T12:31:28.531Z,99.90
2017-11-25T12:33:57.209Z,99.90
2017-11-25T12:36:26.067Z,99.90
2017-11-25T12:38:55.772Z,99.90
2017-11-25T12:41:24.483Z,99.90
2017-11-25T12:43:53.931Z,99.90
2017-11-25T12:46:22.631Z,99.90
2017-11-25T12:48:52.355Z,99.90
2017-11-25T12:51:39.335Z,99.90
2017-11-25T12:54:08.014Z,99.90
2017-11-25T12:56:36.849Z,99.90
2017-11-25T12:59:05.690Z,99.90
2017-11-25T13:01:38.315Z,99.90
2017-11-25T13:07:01.401Z,99.90
2017-11-25T13:18:35.043Z,99.90
2017-11-25T13:21:04.631Z,99.90
2017-11-25T13:23:33.464Z,99.90
2017-11-25T13:26:03.446Z,99.90
2017-11-25T13:28:32.419Z,99.90
2017-11-25T13:31:01.263Z,99.90
2017-11-25T13:33:30.128Z,99.90
2017-11-25T13:35:59.767Z,99.90
2017-11-25T13:38:28.610Z,99.90
2017-11-25T13:40:57.449Z,99.90
2017-11-25T13:43:26.285Z,99.90
2017-11-25T13:45:55.107Z,99.90
2017-11-25T13:48:24.647Z,99.90
2017-11-25T13:50:53.385Z,99.90
2017-11-25T13:53:22.217Z,99.90
2017-11-25T13:55:50.925Z,99.90
2017-11-25T13:58:19.623Z,99.90
2017-11-25T14:00:48.558Z,99.90
2017-11-25T14:03:18.148Z,99.90
2017-11-25T14:05:46.970Z,99.90
2017-11-25T14:08:16.531Z,99.90
2017-11-25T14:10:48.306Z,99.90
2017-11-25T14:13:17.213Z,99.90
2017-11-25T14:15:46.858Z,99.90
2017-11-25T14:18:15.684Z,99.90
2017-11-25T14:20:44.554Z,99.90
2017-11-25T14:23:13.394Z,99.90
2017-11-25T14:25:42.984Z,99.90
2017-11-25T14:28:11.842Z,99.90
2017-11-25T14:30:40.688Z,99.90
2017-11-25T14:33:10.303Z,99.90
2017-11-25T14:35:39.922Z,99.90
2017-11-25T14:38:08.799Z,99.90
2017-11-25T14:40:37.649Z,99.90
2017-11-25T14:43:06.509Z,99.90
2017-11-25T14:45:36.742Z,99.90
2017-11-25T14:48:05.614Z,99.90
2017-11-25T14:50:34.493Z,99.90
2017-11-25T14:53:03.353Z,99.90
2017-11-25T14:55:32.203Z,99.90
2017-11-25T14:58:01.030Z,99.90
2017-11-25T15:00:29.238Z,99.90
2017-11-25T15:02:59.452Z,99.90
2017-11-25T15:05:28.489Z,99.90
2017-11-25T15:07:57.309Z,99.90
2017-11-25T15:10:26.164Z,99.90
2017-11-25T15:12:55.410Z,99.70
2017-11-25T15:15:23.630Z,99.90
2017-11-25T15:17:52.505Z,99.90
2017-11-25T15:20:22.008Z,99.50
2017-11-25T15:22:51.630Z,99.70
2017-11-25T15:25:20.475Z,99.40
2017-11-25T15:27:49.307Z,99.40
2017-11-25T15:30:18.027Z,99.00
2017-11-25T15:32:46.700Z,98.90
2017-11-25T15:35:15.462Z,98.70
2017-11-25T15:37:44.938Z,98.20
2017-11-25T15:40:13.787Z,98.20
2017-11-25T15:42:42.459Z,97.90
2017-11-25T15:45:11.314Z,97.90
2017-11-25T15:47:40.579Z,97.60
2017-11-25T15:50:09.415Z,97.90
2017-11-25T15:52:39.043Z,99.60
2017-11-25T15:55:07.883Z,99.60
2017-11-25T15:57:36.423Z,99.90
2017-11-25T16:00:04.978Z,99.90
2017-11-25T16:02:34.587Z,99.90
2017-11-25T16:05:04.186Z,99.90
2017-11-25T16:07:33.026Z,99.90
2017-11-25T16:10:01.866Z,99.90
2017-11-25T16:12:30.734Z,99.90
2017-11-25T16:15:02.249Z,99.90
2017-11-25T16:17:31.902Z,99.90
2017-11-25T16:20:02.120Z,99.90
2017-11-25T16:22:30.951Z,99.90
2017-11-25T16:25:00.180Z,99.90
2017-11-25T16:27:29.040Z,99.90
2017-11-25T16:29:58.632Z,99.90
2017-11-25T16:32:27.462Z,99.90
2017-11-25T16:34:56.312Z,99.90
2017-11-25T16:37:24.562Z,99.90
2017-11-25T16:39:53.411Z,99.90
2017-11-25T16:42:21.770Z,99.90
2017-11-25T16:44:50.608Z,99.90
2017-11-25T16:47:19.477Z,99.90
2017-11-25T16:49:48.304Z,99.90
2017-11-25T16:52:17.146Z,99.90
2017-11-25T16:54:46.438Z,99.90
2017-11-25T16:57:16.036Z,99.90
2017-11-25T16:59:44.871Z,99.90
2017-11-25T17:02:13.702Z,99.90
2017-11-25T17:04:42.531Z,99.90
2017-11-25T17:07:12.343Z,99.90
2017-11-25T17:09:41.944Z,99.90
2017-11-25T17:12:11.564Z,99.90
2017-11-25T17:14:40.404Z,99.90
2017-11-25T17:17:09.250Z,99.90
2017-11-25T17:19:38.147Z,99.90
2017-11-25T17:22:07.017Z,99.90
2017-11-25T17:24:36.624Z,99.90
2017-11-25T17:27:06.532Z,99.90
2017-11-25T17:29:36.133Z,99.90
2017-11-25T17:32:04.964Z,99.90
2017-11-25T17:34:34.576Z,99.90
2017-11-25T17:37:03.415Z,99.90
2017-11-25T17:39:32.269Z,99.90
2017-11-25T17:42:01.127Z,99.90
2017-11-25T17:44:30.749Z,99.90
2017-11-25T17:46:59.316Z,99.90
2017-11-25T17:49:28.915Z,99.90
2017-11-25T17:51:58.528Z,99.90
2017-11-25T17:54:28.860Z,99.90
2017-11-25T17:57:00.355Z,99.90
2017-11-25T17:59:29.186Z,99.90
2017-11-25T18:01:58.979Z,99.90
2017-11-25T18:04:28.595Z,99.90
2017-11-25T18:06:57.430Z,99.90
2017-11-25T18:09:26.263Z,99.90
2017-11-25T18:11:55.405Z,99.90
2017-11-25T18:14:24.238Z,99.90
2017-11-25T18:16:54.755Z,99.90
2017-11-25T18:19:24.427Z,99.90
2017-11-25T18:21:54.044Z,99.90
2017-11-25T18:24:23.124Z,99.90
2017-11-25T18:26:52.729Z,99.90
2017-11-25T18:29:21.580Z,99.90
2017-11-25T18:31:50.422Z,99.90
2017-11-25T18:34:19.869Z,99.90
2017-11-25T18:36:49.534Z,99.90
2017-11-25T18:39:19.135Z,99.90
2017-11-25T18:41:47.983Z,99.90
2017-11-25T18:44:16.831Z,99.90
2017-11-25T18:46:46.464Z,99.90
2017-11-25T18:49:15.313Z,99.90
2017-11-25T18:51:44.937Z,99.90
2017-11-25T18:54:14.571Z,99.90
2017-11-25T18:56:43.798Z,99.90
2017-11-25T18:59:12.663Z,99.90
2017-11-25T19:01:41.559Z,99.90
2017-11-25T19:04:11.683Z,99.90
2017-11-25T19:06:40.524Z,99.90
2017-11-25T19:09:09.391Z,99.90
2017-11-25T19:11:38.064Z,99.90
2017-11-25T19:14:06.963Z,99.90
2017-11-25T19:16:36.481Z,99.90
2017-11-25T19:19:05.321Z,99.90
2017-11-25T19:21:34.199Z,99.90
2017-11-25T19:24:03.817Z,99.90
2017-11-25T19:26:32.997Z,99.90
2017-11-25T19:29:02.457Z,99.90
2017-11-25T19:31:31.328Z,99.90
2017-11-25T19:34:00.193Z,99.90
2017-11-25T19:36:29.509Z,99.90
2017-11-25T19:38:58.346Z,99.90
2017-11-25T19:41:27.652Z,99.90
2017-11-25T19:43:56.496Z,99.90
2017-11-25T19:46:26.307Z,99.90
2017-11-25T19:48:55.676Z,99.90
2017-11-25T19:51:24.542Z,99.90
2017-11-25T19:53:53.372Z,99.90
2017-11-25T19:56:23.136Z,99.90
2017-11-25T19:58:51.989Z,99.90
2017-11-25T20:01:20.844Z,99.90
2017-11-25T20:03:49.693Z,99.90
2017-11-25T20:06:18.536Z,99.90
2017-11-25T20:08:47.379Z,99.90
2017-11-25T20:11:16.233Z,99.90
2017-11-25T20:13:45.850Z,99.90
2017-11-25T20:16:15.566Z,99.90
2017-11-25T20:18:45.926Z,99.90
2017-11-25T20:21:14.761Z,99.90
2017-11-25T20:23:44.350Z,99.90
2017-11-25T20:26:13.178Z,99.90
2017-11-25T20:28:42.309Z,99.90
2017-11-25T20:31:11.127Z,99.90
2017-11-25T20:33:40.425Z,99.90
2017-11-25T20:36:10.203Z,99.90
2017-11-25T20:38:39.030Z,99.90
2017-11-25T20:41:07.852Z,99.90
2017-11-25T20:43:37.438Z,99.90
2017-11-25T20:46:07.100Z,99.90
2017-11-25T20:48:35.611Z,99.90
2017-11-25T20:51:04.259Z,99.90
2017-11-25T20:53:33.683Z,99.90
2017-11-25T20:56:02.508Z,99.90
2017-11-25T20:58:31.205Z,99.90
2017-11-25T21:01:00.039Z,99.90
2017-11-25T21:03:28.639Z,99.90
2017-11-25T21:05:57.480Z,99.90
2017-11-25T21:08:27.970Z,99.90
2017-11-25T21:10:56.800Z,99.90
2017-11-25T21:13:26.408Z,99.90
2017-11-25T21:15:56.237Z,99.90
2017-11-25T21:18:25.996Z,99.90
2017-11-25T21:20:55.626Z,99.90
2017-11-25T21:23:26.180Z,99.90
2017-11-25T21:25:55.780Z,99.90
2017-11-25T21:28:25.725Z,99.90
2017-11-25T21:30:54.562Z,99.90
2017-11-25T21:33:23.500Z,99.90
2017-11-25T21:35:52.337Z,99.90
2017-11-25T21:38:21.079Z,99.90
2017-11-25T21:40:49.741Z,99.90
2017-11-25T21:43:19.331Z,99.90
2017-11-25T21:45:48.170Z,99.90
2017-11-25T21:48:17.007Z,99.90
2017-11-25T21:50:45.842Z,99.90
2017-11-25T21:53:15.143Z,99.90
2017-11-25T21:55:44.939Z,99.90
2017-11-25T21:58:15.293Z,99.90
2017-11-25T22:00:44.135Z,99.90
2017-11-25T22:03:13.315Z,99.90
2017-11-25T22:05:42.144Z,99.90
2017-11-25T22:08:11.789Z,99.90
2017-11-25T22:10:40.663Z,99.90
2017-11-25T22:13:10.066Z,99.90
2017-11-25T22:15:38.816Z,99.90
2017-11-25T22:18:07.692Z,99.90
2017-11-25T22:20:36.525Z,99.90
2017-11-25T22:23:06.121Z,99.90
2017-11-25T22:25:35.727Z,99.90
2017-11-25T22:28:05.355Z,99.90
2017-11-25T22:30:34.191Z,99.90
2017-11-25T22:33:03.044Z,99.90
2017-11-25T22:35:31.875Z,99.90
2017-11-25T22:38:00.725Z,99.90
2017-11-25T22:40:29.399Z,99.90
2017-11-25T22:42:58.251Z,99.90
2017-11-25T22:45:26.930Z,99.90
2017-11-25T22:47:56.307Z,99.90
2017-11-25T22:50:25.314Z,99.90
2017-11-25T22:52:54.180Z,99.90
2017-11-25T22:55:23.989Z,99.90
2017-11-25T22:57:53.074Z,99.90
2017-11-25T23:00:21.951Z,99.90
2017-11-25T23:02:51.614Z,99.90
2017-11-25T23:05:20.508Z,99.90
2017-11-25T23:07:49.591Z,99.90
2017-11-25T23:10:18.251Z,99.90
2017-11-25T23:12:47.845Z,99.90
2017-11-25T23:15:17.465Z,99.90
2017-11-25T23:17:46.336Z,99.90
2017-11-25T23:20:15.261Z,99.90
2017-11-25T23:22:44.087Z,99.90
2017-11-25T23:25:13.124Z,99.90
2017-11-25T23:27:42.738Z,99.90
2017-11-25T23:30:12.342Z,99.90
2017-11-25T23:32:41.946Z,99.90
2017-11-25T23:35:11.871Z,99.90
2017-11-25T23:37:41.477Z,99.90
2017-11-25T23:40:11.083Z,99.90
2017-11-25T23:42:40.678Z,99.90
2017-11-25T23:45:09.930Z,99.90
2017-11-25T23:47:38.768Z,99.90
2017-11-25T23:50:07.619Z,99.90
2017-11-25T23:52:36.532Z,99.90
2017-11-25T23:55:05.391Z,99.90
2017-11-25T23:57:34.298Z,99.90
